createdAt,value
2018-01-21T20:29:03.524Z,1007.94
2018-01-21T20:30:04.324Z,1007.91
2018-01-21T20:32:47.898Z,1007.85
2018-01-21T20:33:46.828Z,1007.80
2018-01-21T20:36:31.683Z,1007.69
2018-01-21T20:37:32.436Z,1007.71
2018-01-21T20:40:15.969Z,1007.61
2018-01-21T20:41:15.818Z,1007.58
2018-01-21T20:44:01.468Z,1007.56
2018-01-21T20:45:00.393Z,1007.53
2018-01-21T20:47:45.574Z,1007.41
2018-01-21T20:48:44.918Z,1007.48
2018-01-21T20:51:28.564Z,1007.56
2018-01-21T20:52:29.315Z,1007.55
2018-01-21T20:55:13.152Z,1007.54
2018-01-21T20:56:13.048Z,1007.59
2018-01-21T20:58:57.212Z,1007.51
2018-01-21T20:59:57.380Z,1007.50
2018-01-21T21:02:41.531Z,1007.37
2018-01-21T21:03:42.895Z,1007.40
2018-01-21T21:06:27.228Z,1007.41
2018-01-21T21:07:27.722Z,1007.36
2018-01-21T21:10:10.784Z,1007.38
2018-01-21T21:11:09.773Z,1007.34
2018-01-21T21:13:54.218Z,1007.31
2018-01-21T21:14:54.092Z,1007.33
2018-01-21T21:17:38.957Z,1007.35
2018-01-21T21:18:38.809Z,1007.34
2018-01-21T21:20:35.200Z,1007.35
2018-01-21T21:21:35.175Z,1007.39
2018-01-21T21:24:18.551Z,1007.35
2018-01-21T21:25:18.194Z,1007.32
2018-01-21T21:28:03.009Z,1007.31
2018-01-21T21:29:02.936Z,1007.32
2018-01-21T21:31:47.103Z,1007.26
2018-01-21T21:32:47.064Z,1007.32
2018-01-21T21:34:42.823Z,1007.23
2018-01-21T21:36:30.882Z,1007.24
2018-01-21T21:39:16.185Z,1007.26
2018-01-21T21:40:16.211Z,1007.28
2018-01-21T21:43:00.226Z,1007.34
2018-01-21T21:44:00.497Z,1007.34
2018-01-21T21:46:44.608Z,1007.28
2018-01-21T21:47:44.482Z,1007.25
2018-01-21T21:50:28.467Z,1007.18
2018-01-21T21:51:28.425Z,1007.12
2018-01-21T21:54:13.810Z,1007.09
2018-01-21T21:55:13.252Z,1007.05
2018-01-21T21:57:56.170Z,1006.97
2018-01-21T21:58:56.100Z,1006.92
2018-01-21T22:01:39.494Z,1006.86
2018-01-21T22:02:39.452Z,1006.82
2018-01-21T22:05:24.196Z,1006.74
2018-01-21T22:06:23.882Z,1006.71
2018-01-21T22:09:07.245Z,1006.65
2018-01-21T22:10:07.164Z,1006.59
2018-01-21T22:12:51.959Z,1006.56
2018-01-21T22:13:51.780Z,1006.46
2018-01-21T22:16:34.909Z,1006.36
2018-01-21T22:17:35.252Z,1006.29
2018-01-21T22:20:19.580Z,1006.21
2018-01-21T22:21:19.569Z,1006.21
2018-01-21T22:24:04.071Z,1006.16
2018-01-21T22:25:02.771Z,1006.12
2018-01-21T22:27:46.657Z,1006.03
2018-01-21T22:28:46.236Z,1006.09
2018-01-21T22:31:31.238Z,1006.02
2018-01-21T22:32:29.612Z,1006.05
2018-01-21T22:35:14.439Z,1005.95
2018-01-21T22:36:14.135Z,1005.92
2018-01-21T22:38:57.698Z,1005.97
2018-01-21T22:39:57.272Z,1005.95
2018-01-21T22:40:57.274Z,1005.93
2018-01-21T22:41:57.803Z,1005.91
2018-01-21T22:42:59.893Z,1005.92
2018-01-21T22:43:59.010Z,1005.90
2018-01-21T22:44:58.697Z,1005.89
2018-01-21T22:45:57.282Z,1005.90
2018-01-21T22:46:57.598Z,1005.89
2018-01-21T22:47:57.206Z,1005.90
2018-01-21T22:48:57.197Z,1005.84
2018-01-21T22:49:57.626Z,1005.82
2018-01-21T22:50:57.186Z,1005.78
2018-01-21T22:51:57.156Z,1005.83
2018-01-21T22:52:57.155Z,1005.80
2018-01-21T22:53:57.194Z,1005.79
2018-01-21T22:54:57.130Z,1005.76
2018-01-21T22:55:57.152Z,1005.74
2018-01-21T22:56:57.193Z,1005.73
2018-01-21T22:57:57.087Z,1005.70
2018-01-21T22:58:57.097Z,1005.65
2018-01-21T22:59:57.075Z,1005.58
2018-01-21T23:00:57.062Z,1005.51
2018-01-21T23:01:57.052Z,1005.50
2018-01-21T23:02:57.042Z,1005.48
2018-01-21T23:03:57.046Z,1005.40
2018-01-21T23:04:57.024Z,1005.38
2018-01-21T23:05:57.022Z,1005.38
2018-01-21T23:06:57.011Z,1005.39
2018-01-21T23:07:57.006Z,1005.44
2018-01-21T23:08:56.990Z,1005.40
2018-01-21T23:09:56.981Z,1005.39
2018-01-21T23:10:56.971Z,1005.30
2018-01-21T23:11:56.955Z,1005.28
2018-01-21T23:12:56.956Z,1005.24
2018-01-21T23:13:56.950Z,1005.22
2018-01-21T23:14:56.926Z,1005.14
2018-01-21T23:15:56.919Z,1005.16
2018-01-21T23:16:56.900Z,1005.16
2018-01-21T23:17:56.894Z,1005.12
2018-01-21T23:18:56.886Z,1005.13
2018-01-21T23:19:56.877Z,1005.15
2018-01-21T23:20:56.867Z,1005.15
2018-01-21T23:21:56.849Z,1005.15
2018-01-21T23:22:56.858Z,1005.17
2018-01-21T23:23:56.829Z,1005.18
2018-01-21T23:24:56.839Z,1005.07
2018-01-21T23:25:56.817Z,1005.03
2018-01-21T23:26:56.809Z,1004.92
2018-01-21T23:27:56.800Z,1004.87
2018-01-21T23:28:56.801Z,1004.78
2018-01-21T23:29:56.786Z,1004.64
2018-01-21T23:30:56.820Z,1004.54
2018-01-21T23:31:56.758Z,1004.49
2018-01-21T23:32:56.765Z,1004.45
2018-01-21T23:33:56.739Z,1004.36
2018-01-21T23:34:08.744Z,1004.24
2018-01-21T23:35:56.735Z,1004.21
2018-01-21T23:36:56.698Z,1004.19
2018-01-21T23:37:56.698Z,1004.13
2018-01-21T23:38:56.684Z,1004.11
2018-01-21T23:39:56.683Z,1004.04
2018-01-21T23:40:56.665Z,1004.07
2018-01-21T23:41:56.647Z,1004.12
2018-01-21T23:42:56.653Z,1004.17
2018-01-21T23:43:56.641Z,1004.23
2018-01-21T23:44:56.634Z,1004.26
2018-01-21T23:45:56.617Z,1004.22
2018-01-21T23:46:56.607Z,1004.22
2018-01-21T23:47:56.606Z,1004.19
2018-01-21T23:48:56.582Z,1004.21
2018-01-21T23:49:56.579Z,1004.19
2018-01-21T23:50:56.563Z,1004.20
2018-01-21T23:51:56.555Z,1004.26
2018-01-21T23:52:56.547Z,1004.24
2018-01-21T23:53:56.534Z,1004.19
2018-01-21T23:54:56.526Z,1004.07
2018-01-21T23:55:56.524Z,1004.08
2018-01-21T23:56:56.506Z,1003.97
2018-01-21T23:57:56.495Z,1003.91
2018-01-21T23:58:56.488Z,1003.93
2018-01-21T23:59:56.479Z,1003.91
